sensor_id;sensor_type;location;lat;lon;timestamp;P1;durP1;ratioP1;P2;durP2;ratioP2
3975;SDS011;2002;48.812;9.180;2022-12-18T00:02:13;9.73;;;8.63;;
3975;SDS011;2002;48.812;9.180;2022-12-18T00:04:39;9.93;;;9.10;;
3975;SDS011;2002;48.812;9.180;2022-12-18T00:07:04;9.20;;;8.30;;
3975;SDS011;2002;48.812;9.180;2022-12-18T00:09:30;9.67;;;8.67;;
3975;SDS011;2002;48.812;9.180;2022-12-18T00:11:55;9.30;;;8.40;;
3975;SDS011;2002;48.812;9.180;2022-12-18T00:14:21;9.27;;;8.43;;
3975;SDS011;2002;48.812;9.180;2022-12-18T00:16:46;9.53;;;8.50;;
3975;SDS011;2002;48.812;9.180;2022-12-18T00:19:13;9.90;;;9.00;;
3975;SDS011;2002;48.812;9.180;2022-12-18T00:21:39;9.70;;;8.67;;
3975;SDS011;2002;48.812;9.180;2022-12-18T00:24:05;8.87;;;8.07;;
3975;SDS011;2002;48.812;9.180;2022-12-18T00:26:32;10.27;;;9.27;;
3975;SDS011;2002;48.812;9.180;2022-12-18T00:28:59;9.57;;;8.60;;
3975;SDS011;2002;48.812;9.180;2022-12-18T00:31:26;9.20;;;8.30;;
3975;SDS011;2002;48.812;9.180;2022-12-18T00:33:55;11.10;;;9.57;;
3975;SDS011;2002;48.812;9.180;2022-12-18T00:36:22;10.60;;;9.60;;
3975;SDS011;2002;48.812;9.180;2022-12-18T00:38:50;10.33;;;8.67;;
3975;SDS011;2002;48.812;9.180;2022-12-18T00:41:17;9.53;;;8.73;;
3975;SDS011;2002;48.812;9.180;2022-12-18T00:44:02;9.60;;;8.60;;
3975;SDS011;2002;48.812;9.180;2022-12-18T00:46:29;9.50;;;8.60;;
3975;SDS011;2002;48.812;9.180;2022-12-18T00:48:54;9.17;;;8.37;;
3975;SDS011;2002;48.812;9.180;2022-12-18T00:51:20;10.43;;;9.00;;
3975;SDS011;2002;48.812;9.180;2022-12-18T00:53:45;9.53;;;8.73;;
3975;SDS011;2002;48.812;9.180;2022-12-18T00:56:11;10.33;;;9.30;;
3975;SDS011;2002;48.812;9.180;2022-12-18T00:58:37;11.03;;;9.83;;
3975;SDS011;2002;48.812;9.180;2022-12-18T01:01:05;9.83;;;8.93;;
3975;SDS011;2002;48.812;9.180;2022-12-18T01:03:31;12.27;;;11.17;;
3975;SDS011;2002;48.812;9.180;2022-12-18T01:05:57;8.73;;;7.93;;
3975;SDS011;2002;48.812;9.180;2022-12-18T01:08:23;10.70;;;9.60;;
3975;SDS011;2002;48.812;9.180;2022-12-18T01:10:48;9.03;;;8.27;;
3975;SDS011;2002;48.812;9.180;2022-12-18T01:13:15;9.33;;;8.43;;
3975;SDS011;2002;48.812;9.180;2022-12-18T01:15:47;10.13;;;9.13;;
3975;SDS011;2002;48.812;9.180;2022-12-18T01:18:14;9.70;;;8.70;;
3975;SDS011;2002;48.812;9.180;2022-12-18T01:20:39;9.83;;;8.73;;
3975;SDS011;2002;48.812;9.180;2022-12-18T01:23:05;9.00;;;8.20;;
3975;SDS011;2002;48.812;9.180;2022-12-18T01:25:31;9.77;;;8.90;;
3975;SDS011;2002;48.812;9.180;2022-12-18T01:27:58;9.90;;;8.97;;
3975;SDS011;2002;48.812;9.180;2022-12-18T01:30:23;9.53;;;8.63;;
3975;SDS011;2002;48.812;9.180;2022-12-18T01:32:49;10.13;;;9.20;;
3975;SDS011;2002;48.812;9.180;2022-12-18T01:35:14;9.57;;;8.67;;
3975;SDS011;2002;48.812;9.180;2022-12-18T01:37:40;10.30;;;9.13;;
3975;SDS011;2002;48.812;9.180;2022-12-18T01:40:05;8.87;;;8.07;;
3975;SDS011;2002;48.812;9.180;2022-12-18T01:42:32;10.43;;;9.57;;
3975;SDS011;2002;48.812;9.180;2022-12-18T01:45:02;9.23;;;8.53;;
3975;SDS011;2002;48.812;9.180;2022-12-18T01:47:51;9.80;;;8.90;;
3975;SDS011;2002;48.812;9.180;2022-12-18T01:55:40;10.47;;;9.37;;
3975;SDS011;2002;48.812;9.180;2022-12-18T01:58:10;10.37;;;9.37;;
3975;SDS011;2002;48.812;9.180;2022-12-18T02:00:36;10.57;;;9.67;;
3975;SDS011;2002;48.812;9.180;2022-12-18T02:03:01;10.30;;;9.17;;
3975;SDS011;2002;48.812;9.180;2022-12-18T02:08:29;9.53;;;8.67;;
3975;SDS011;2002;48.812;9.180;2022-12-18T02:11:18;10.50;;;9.50;;
3975;SDS011;2002;48.812;9.180;2022-12-18T02:19:37;11.23;;;10.03;;
3975;SDS011;2002;48.812;9.180;2022-12-18T02:27:26;10.77;;;9.77;;
3975;SDS011;2002;48.812;9.180;2022-12-18T02:29:55;10.17;;;9.17;;
3975;SDS011;2002;48.812;9.180;2022-12-18T02:32:25;10.60;;;9.60;;
3975;SDS011;2002;48.812;9.180;2022-12-18T02:35:02;10.90;;;9.80;;
3975;SDS011;2002;48.812;9.180;2022-12-18T02:37:29;11.00;;;10.03;;
3975;SDS011;2002;48.812;9.180;2022-12-18T02:39:56;10.57;;;9.57;;
3975;SDS011;2002;48.812;9.180;2022-12-18T02:42:24;10.93;;;9.77;;
3975;SDS011;2002;48.812;9.180;2022-12-18T02:44:51;10.37;;;9.37;;
3975;SDS011;2002;48.812;9.180;2022-12-18T02:47:20;10.70;;;9.70;;
3975;SDS011;2002;48.812;9.180;2022-12-18T02:52:31;10.10;;;9.10;;
3975;SDS011;2002;48.812;9.180;2022-12-18T03:03:42;10.63;;;9.60;;
3975;SDS011;2002;48.812;9.180;2022-12-18T03:06:32;11.53;;;10.30;;
3975;SDS011;2002;48.812;9.180;2022-12-18T03:09:03;9.90;;;9.00;;
3975;SDS011;2002;48.812;9.180;2022-12-18T03:11:34;10.77;;;9.07;;
3975;SDS011;2002;48.812;9.180;2022-12-18T03:14:22;11.13;;;10.00;;
3975;SDS011;2002;48.812;9.180;2022-12-18T03:16:51;10.10;;;9.20;;
3975;SDS011;2002;48.812;9.180;2022-12-18T03:19:20;10.40;;;9.50;;
3975;SDS011;2002;48.812;9.180;2022-12-18T03:21:54;10.00;;;9.20;;
3975;SDS011;2002;48.812;9.180;2022-12-18T03:24:21;10.80;;;9.70;;
3975;SDS011;2002;48.812;9.180;2022-12-18T03:26:50;10.33;;;9.30;;
3975;SDS011;2002;48.812;9.180;2022-12-18T03:29:21;9.27;;;8.47;;
3975;SDS011;2002;48.812;9.180;2022-12-18T03:32:19;11.37;;;9.73;;
3975;SDS011;2002;48.812;9.180;2022-12-18T03:34:59;10.20;;;9.30;;
3975;SDS011;2002;48.812;9.180;2022-12-18T03:37:28;11.40;;;10.33;;
3975;SDS011;2002;48.812;9.180;2022-12-18T03:39:53;10.53;;;9.47;;
3975;SDS011;2002;48.812;9.180;2022-12-18T03:45:02;11.77;;;10.13;;
3975;SDS011;2002;48.812;9.180;2022-12-18T03:47:40;11.47;;;10.37;;
3975;SDS011;2002;48.812;9.180;2022-12-18T03:56:05;9.30;;;8.40;;
3975;SDS011;2002;48.812;9.180;2022-12-18T03:58:31;11.70;;;10.53;;
3975;SDS011;2002;48.812;9.180;2022-12-18T04:00:59;10.80;;;9.80;;
3975;SDS011;2002;48.812;9.180;2022-12-18T04:03:28;10.80;;;9.70;;
3975;SDS011;2002;48.812;9.180;2022-12-18T04:05:56;10.40;;;9.40;;
3975;SDS011;2002;48.812;9.180;2022-12-18T04:08:25;10.67;;;9.70;;
3975;SDS011;2002;48.812;9.180;2022-12-18T04:10:51;10.27;;;9.27;;
3975;SDS011;2002;48.812;9.180;2022-12-18T04:13:32;10.17;;;9.27;;
3975;SDS011;2002;48.812;9.180;2022-12-18T04:16:00;9.90;;;9.10;;
3975;SDS011;2002;48.812;9.180;2022-12-18T04:18:26;10.20;;;9.30;;
3975;SDS011;2002;48.812;9.180;2022-12-18T04:20:52;10.83;;;9.93;;
3975;SDS011;2002;48.812;9.180;2022-12-18T04:23:17;10.10;;;9.10;;
3975;SDS011;2002;48.812;9.180;2022-12-18T04:25:43;11.17;;;10.23;;
3975;SDS011;2002;48.812;9.180;2022-12-18T04:28:08;10.17;;;9.27;;
3975;SDS011;2002;48.812;9.180;2022-12-18T04:30:34;10.47;;;9.47;;
3975;SDS011;2002;48.812;9.180;2022-12-18T04:32:59;10.73;;;9.63;;
3975;SDS011;2002;48.812;9.180;2022-12-18T04:35:25;11.00;;;10.00;;
3975;SDS011;2002;48.812;9.180;2022-12-18T04:37:51;11.70;;;10.60;;
3975;SDS011;2002;48.812;9.180;2022-12-18T04:40:16;11.40;;;9.50;;
3975;SDS011;2002;48.812;9.180;2022-12-18T04:42:42;11.27;;;10.27;;
3975;SDS011;2002;48.812;9.180;2022-12-18T04:45:07;9.90;;;9.00;;
3975;SDS011;2002;48.812;9.180;2022-12-18T04:47:33;10.80;;;9.70;;
3975;SDS011;2002;48.812;9.180;2022-12-18T04:49:59;9.87;;;8.87;;
3975;SDS011;2002;48.812;9.180;2022-12-18T04:52:24;10.83;;;9.83;;
3975;SDS011;2002;48.812;9.180;2022-12-18T04:54:50;10.50;;;9.40;;
3975;SDS011;2002;48.812;9.180;2022-12-18T04:57:15;10.90;;;9.83;;
3975;SDS011;2002;48.812;9.180;2022-12-18T04:59:42;11.00;;;9.87;;
3975;SDS011;2002;48.812;9.180;2022-12-18T05:02:09;11.77;;;10.53;;
3975;SDS011;2002;48.812;9.180;2022-12-18T05:04:34;10.63;;;9.63;;
3975;SDS011;2002;48.812;9.180;2022-12-18T05:07:00;10.10;;;9.20;;
3975;SDS011;2002;48.812;9.180;2022-12-18T05:09:25;11.57;;;10.37;;
3975;SDS011;2002;48.812;9.180;2022-12-18T05:11:51;10.77;;;9.77;;
3975;SDS011;2002;48.812;9.180;2022-12-18T05:14:16;10.20;;;9.30;;
3975;SDS011;2002;48.812;9.180;2022-12-18T05:16:42;11.30;;;9.43;;
3975;SDS011;2002;48.812;9.180;2022-12-18T05:19:07;10.77;;;9.70;;
3975;SDS011;2002;48.812;9.180;2022-12-18T05:21:33;11.23;;;10.13;;
3975;SDS011;2002;48.812;9.180;2022-12-18T05:23:59;10.53;;;9.60;;
3975;SDS011;2002;48.812;9.180;2022-12-18T05:26:24;10.60;;;9.60;;
3975;SDS011;2002;48.812;9.180;2022-12-18T05:28:50;9.47;;;8.57;;
3975;SDS011;2002;48.812;9.180;2022-12-18T05:31:15;10.60;;;9.50;;
3975;SDS011;2002;48.812;9.180;2022-12-18T05:33:41;9.73;;;8.73;;
3975;SDS011;2002;48.812;9.180;2022-12-18T05:36:07;10.77;;;9.73;;
3975;SDS011;2002;48.812;9.180;2022-12-18T05:38:34;10.50;;;9.43;;
3975;SDS011;2002;48.812;9.180;2022-12-18T05:41:01;10.73;;;9.83;;
3975;SDS011;2002;48.812;9.180;2022-12-18T05:43:28;10.83;;;9.73;;
3975;SDS011;2002;48.812;9.180;2022-12-18T05:45:54;10.40;;;9.40;;
3975;SDS011;2002;48.812;9.180;2022-12-18T05:48:20;11.40;;;10.23;;
3975;SDS011;2002;48.812;9.180;2022-12-18T05:50:47;10.70;;;9.80;;
3975;SDS011;2002;48.812;9.180;2022-12-18T05:53:14;10.10;;;9.20;;
3975;SDS011;2002;48.812;9.180;2022-12-18T05:55:42;9.60;;;8.70;;
3975;SDS011;2002;48.812;9.180;2022-12-18T05:58:09;9.90;;;9.00;;
3975;SDS011;2002;48.812;9.180;2022-12-18T06:00:36;9.27;;;8.47;;
3975;SDS011;2002;48.812;9.180;2022-12-18T06:03:06;11.07;;;10.00;;
3975;SDS011;2002;48.812;9.180;2022-12-18T06:05:37;10.13;;;9.23;;
3975;SDS011;2002;48.812;9.180;2022-12-18T06:08:04;9.77;;;8.77;;
3975;SDS011;2002;48.812;9.180;2022-12-18T06:10:29;9.57;;;8.57;;
3975;SDS011;2002;48.812;9.180;2022-12-18T06:12:55;10.03;;;9.13;;
3975;SDS011;2002;48.812;9.180;2022-12-18T06:15:20;11.10;;;9.63;;
3975;SDS011;2002;48.812;9.180;2022-12-18T06:17:46;11.27;;;10.27;;
3975;SDS011;2002;48.812;9.180;2022-12-18T06:20:11;10.10;;;9.20;;
3975;SDS011;2002;48.812;9.180;2022-12-18T06:22:37;11.73;;;10.43;;
3975;SDS011;2002;48.812;9.180;2022-12-18T06:25:03;9.40;;;8.50;;
3975;SDS011;2002;48.812;9.180;2022-12-18T06:27:29;9.97;;;9.00;;
3975;SDS011;2002;48.812;9.180;2022-12-18T06:29:55;10.50;;;9.00;;
3975;SDS011;2002;48.812;9.180;2022-12-18T06:32:20;9.47;;;8.57;;
3975;SDS011;2002;48.812;9.180;2022-12-18T06:34:46;10.27;;;8.80;;
3975;SDS011;2002;48.812;9.180;2022-12-18T06:37:11;10.07;;;9.07;;
3975;SDS011;2002;48.812;9.180;2022-12-18T06:39:37;10.47;;;9.50;;
3975;SDS011;2002;48.812;9.180;2022-12-18T06:42:02;10.03;;;9.10;;
3975;SDS011;2002;48.812;9.180;2022-12-18T06:44:28;9.33;;;8.50;;
3975;SDS011;2002;48.812;9.180;2022-12-18T06:46:54;9.60;;;8.70;;
3975;SDS011;2002;48.812;9.180;2022-12-18T06:49:20;9.10;;;8.30;;
3975;SDS011;2002;48.812;9.180;2022-12-18T06:51:46;9.87;;;8.80;;
3975;SDS011;2002;48.812;9.180;2022-12-18T06:54:12;10.00;;;9.10;;
3975;SDS011;2002;48.812;9.180;2022-12-18T06:56:37;10.17;;;9.23;;
3975;SDS011;2002;48.812;9.180;2022-12-18T06:59:03;10.30;;;9.30;;
3975;SDS011;2002;48.812;9.180;2022-12-18T07:01:29;9.13;;;8.33;;
3975;SDS011;2002;48.812;9.180;2022-12-18T07:03:55;9.17;;;8.27;;
3975;SDS011;2002;48.812;9.180;2022-12-18T07:06:23;10.80;;;9.83;;
3975;SDS011;2002;48.812;9.180;2022-12-18T07:08:50;9.53;;;8.53;;
3975;SDS011;2002;48.812;9.180;2022-12-18T07:11:17;10.03;;;9.13;;
3975;SDS011;2002;48.812;9.180;2022-12-18T07:13:43;10.67;;;9.67;;
3975;SDS011;2002;48.812;9.180;2022-12-18T07:16:11;9.10;;;8.30;;
3975;SDS011;2002;48.812;9.180;2022-12-18T07:18:41;11.20;;;10.30;;
3975;SDS011;2002;48.812;9.180;2022-12-18T07:21:08;11.80;;;9.10;;
3975;SDS011;2002;48.812;9.180;2022-12-18T07:23:36;9.30;;;8.40;;
3975;SDS011;2002;48.812;9.180;2022-12-18T07:26:08;8.90;;;8.20;;
3975;SDS011;2002;48.812;9.180;2022-12-18T07:28:36;9.17;;;8.30;;
3975;SDS011;2002;48.812;9.180;2022-12-18T07:31:03;10.53;;;9.63;;
3975;SDS011;2002;48.812;9.180;2022-12-18T07:33:30;10.73;;;9.83;;
3975;SDS011;2002;48.812;9.180;2022-12-18T07:35:58;9.33;;;8.43;;
3975;SDS011;2002;48.812;9.180;2022-12-18T07:38:28;10.13;;;9.20;;
3975;SDS011;2002;48.812;9.180;2022-12-18T07:40:54;10.37;;;9.10;;
3975;SDS011;2002;48.812;9.180;2022-12-18T07:43:20;10.23;;;9.23;;
3975;SDS011;2002;48.812;9.180;2022-12-18T07:45:45;9.60;;;8.70;;
3975;SDS011;2002;48.812;9.180;2022-12-18T07:48:15;10.07;;;9.10;;
3975;SDS011;2002;48.812;9.180;2022-12-18T07:50:40;9.30;;;8.30;;
3975;SDS011;2002;48.812;9.180;2022-12-18T07:53:06;9.77;;;8.77;;
3975;SDS011;2002;48.812;9.180;2022-12-18T07:55:31;8.33;;;7.63;;
3975;SDS011;2002;48.812;9.180;2022-12-18T07:58:00;9.40;;;8.50;;
3975;SDS011;2002;48.812;9.180;2022-12-18T08:00:26;9.40;;;8.60;;
3975;SDS011;2002;48.812;9.180;2022-12-18T08:02:52;9.60;;;8.67;;
3975;SDS011;2002;48.812;9.180;2022-12-18T08:05:18;8.80;;;7.70;;
3975;SDS011;2002;48.812;9.180;2022-12-18T08:07:43;10.17;;;9.17;;
3975;SDS011;2002;48.812;9.180;2022-12-18T08:10:09;9.50;;;8.60;;
3975;SDS011;2002;48.812;9.180;2022-12-18T08:12:35;9.57;;;8.67;;
3975;SDS011;2002;48.812;9.180;2022-12-18T08:15:00;9.80;;;9.00;;
3975;SDS011;2002;48.812;9.180;2022-12-18T08:17:26;8.80;;;7.90;;
3975;SDS011;2002;48.812;9.180;2022-12-18T08:19:51;8.83;;;8.00;;
3975;SDS011;2002;48.812;9.180;2022-12-18T08:22:17;9.50;;;8.60;;
3975;SDS011;2002;48.812;9.180;2022-12-18T08:24:42;9.87;;;9.00;;
3975;SDS011;2002;48.812;9.180;2022-12-18T08:27:08;9.37;;;8.47;;
3975;SDS011;2002;48.812;9.180;2022-12-18T08:29:33;9.73;;;8.73;;
3975;SDS011;2002;48.812;9.180;2022-12-18T08:31:59;10.03;;;9.13;;
3975;SDS011;2002;48.812;9.180;2022-12-18T08:34:24;9.60;;;8.70;;
3975;SDS011;2002;48.812;9.180;2022-12-18T08:36:50;10.83;;;9.83;;
3975;SDS011;2002;48.812;9.180;2022-12-18T08:39:16;8.70;;;8.00;;
3975;SDS011;2002;48.812;9.180;2022-12-18T08:41:42;8.97;;;8.27;;
3975;SDS011;2002;48.812;9.180;2022-12-18T08:44:28;9.00;;;8.20;;
3975;SDS011;2002;48.812;9.180;2022-12-18T08:47:02;10.00;;;9.00;;
3975;SDS011;2002;48.812;9.180;2022-12-18T08:49:28;10.37;;;9.33;;
3975;SDS011;2002;48.812;9.180;2022-12-18T08:51:54;10.07;;;9.17;;
3975;SDS011;2002;48.812;9.180;2022-12-18T08:54:22;8.90;;;8.10;;
3975;SDS011;2002;48.812;9.180;2022-12-18T08:56:48;8.97;;;8.13;;
3975;SDS011;2002;48.812;9.180;2022-12-18T08:59:14;9.00;;;8.13;;
3975;SDS011;2002;48.812;9.180;2022-12-18T09:01:41;8.83;;;8.07;;
3975;SDS011;2002;48.812;9.180;2022-12-18T09:04:07;9.17;;;8.17;;
3975;SDS011;2002;48.812;9.180;2022-12-18T09:06:33;8.97;;;8.13;;
3975;SDS011;2002;48.812;9.180;2022-12-18T09:08:59;9.07;;;8.13;;
3975;SDS011;2002;48.812;9.180;2022-12-18T09:11:25;9.77;;;8.87;;
3975;SDS011;2002;48.812;9.180;2022-12-18T09:13:53;9.53;;;8.70;;
3975;SDS011;2002;48.812;9.180;2022-12-18T09:16:19;8.40;;;7.60;;
3975;SDS011;2002;48.812;9.180;2022-12-18T09:18:46;9.43;;;8.47;;
3975;SDS011;2002;48.812;9.180;2022-12-18T09:21:16;9.17;;;8.37;;
3975;SDS011;2002;48.812;9.180;2022-12-18T09:23:49;9.37;;;8.47;;
3975;SDS011;2002;48.812;9.180;2022-12-18T09:26:15;9.27;;;8.37;;
3975;SDS011;2002;48.812;9.180;2022-12-18T09:28:41;8.77;;;7.97;;
3975;SDS011;2002;48.812;9.180;2022-12-18T09:31:07;9.83;;;8.63;;
3975;SDS011;2002;48.812;9.180;2022-12-18T09:33:37;11.20;;;10.00;;
3975;SDS011;2002;48.812;9.180;2022-12-18T09:36:03;8.20;;;7.50;;
3975;SDS011;2002;48.812;9.180;2022-12-18T09:38:31;9.73;;;8.80;;
3975;SDS011;2002;48.812;9.180;2022-12-18T09:41:04;8.70;;;7.90;;
3975;SDS011;2002;48.812;9.180;2022-12-18T09:43:47;8.47;;;7.67;;
3975;SDS011;2002;48.812;9.180;2022-12-18T09:46:17;9.20;;;8.40;;
3975;SDS011;2002;48.812;9.180;2022-12-18T09:48:51;9.77;;;8.87;;
3975;SDS011;2002;48.812;9.180;2022-12-18T09:51:22;9.53;;;8.57;;
3975;SDS011;2002;48.812;9.180;2022-12-18T09:53:53;9.67;;;8.47;;
3975;SDS011;2002;48.812;9.180;2022-12-18T09:56:24;10.27;;;9.27;;
3975;SDS011;2002;48.812;9.180;2022-12-18T09:58:55;9.57;;;8.60;;
3975;SDS011;2002;48.812;9.180;2022-12-18T10:01:24;8.10;;;7.33;;
3975;SDS011;2002;48.812;9.180;2022-12-18T10:03:51;9.97;;;9.00;;
3975;SDS011;2002;48.812;9.180;2022-12-18T10:06:20;9.67;;;8.77;;
3975;SDS011;2002;48.812;9.180;2022-12-18T10:11:40;8.63;;;7.13;;
3975;SDS011;2002;48.812;9.180;2022-12-18T10:14:31;9.33;;;8.40;;
3975;SDS011;2002;48.812;9.180;2022-12-18T10:20:01;9.20;;;8.30;;
3975;SDS011;2002;48.812;9.180;2022-12-18T10:22:29;8.80;;;8.00;;
3975;SDS011;2002;48.812;9.180;2022-12-18T10:27:56;9.20;;;8.30;;
3975;SDS011;2002;48.812;9.180;2022-12-18T10:30:25;9.90;;;9.00;;
3975;SDS011;2002;48.812;9.180;2022-12-18T10:32:51;9.27;;;8.47;;
3975;SDS011;2002;48.812;9.180;2022-12-18T10:35:21;9.00;;;8.10;;
3975;SDS011;2002;48.812;9.180;2022-12-18T10:38:03;9.80;;;8.53;;
3975;SDS011;2002;48.812;9.180;2022-12-18T10:40:54;9.47;;;8.67;;
3975;SDS011;2002;48.812;9.180;2022-12-18T10:43:37;8.93;;;8.10;;
3975;SDS011;2002;48.812;9.180;2022-12-18T10:48:47;9.23;;;8.33;;
3975;SDS011;2002;48.812;9.180;2022-12-18T10:53:59;9.13;;;8.10;;
3975;SDS011;2002;48.812;9.180;2022-12-18T10:56:30;8.63;;;7.83;;
3975;SDS011;2002;48.812;9.180;2022-12-18T10:58:59;8.10;;;7.50;;
3975;SDS011;2002;48.812;9.180;2022-12-18T11:04:24;9.00;;;8.10;;
3975;SDS011;2002;48.812;9.180;2022-12-18T11:07:05;9.53;;;8.63;;
3975;SDS011;2002;48.812;9.180;2022-12-18T11:09:35;9.90;;;9.00;;
3975;SDS011;2002;48.812;9.180;2022-12-18T11:12:04;9.17;;;8.27;;
3975;SDS011;2002;48.812;9.180;2022-12-18T11:17:18;9.07;;;8.23;;
3975;SDS011;2002;48.812;9.180;2022-12-18T11:19:54;8.30;;;7.50;;
3975;SDS011;2002;48.812;9.180;2022-12-18T11:22:28;8.47;;;7.67;;
3975;SDS011;2002;48.812;9.180;2022-12-18T11:27:26;9.17;;;8.27;;
3975;SDS011;2002;48.812;9.180;2022-12-18T11:30:06;8.47;;;7.23;;
3975;SDS011;2002;48.812;9.180;2022-12-18T11:32:41;8.50;;;7.70;;
3975;SDS011;2002;48.812;9.180;2022-12-18T11:35:32;8.80;;;7.87;;
3975;SDS011;2002;48.812;9.180;2022-12-18T11:40:49;8.13;;;7.33;;
3975;SDS011;2002;48.812;9.180;2022-12-18T11:43:28;8.87;;;7.77;;
3975;SDS011;2002;48.812;9.180;2022-12-18T11:46:14;8.17;;;7.37;;
3975;SDS011;2002;48.812;9.180;2022-12-18T11:48:49;8.00;;;7.20;;
3975;SDS011;2002;48.812;9.180;2022-12-18T11:51:35;8.70;;;7.90;;
3975;SDS011;2002;48.812;9.180;2022-12-18T11:54:09;7.80;;;7.10;;
3975;SDS011;2002;48.812;9.180;2022-12-18T11:56:49;8.70;;;7.90;;
3975;SDS011;2002;48.812;9.180;2022-12-18T11:59:30;8.37;;;7.53;;
3975;SDS011;2002;48.812;9.180;2022-12-18T12:02:21;7.83;;;7.17;;
3975;SDS011;2002;48.812;9.180;2022-12-18T12:07:50;9.80;;;7.67;;
3975;SDS011;2002;48.812;9.180;2022-12-18T12:10:34;7.93;;;7.23;;
3975;SDS011;2002;48.812;9.180;2022-12-18T12:13:38;8.90;;;8.00;;
3975;SDS011;2002;48.812;9.180;2022-12-18T12:16:13;8.37;;;7.57;;
3975;SDS011;2002;48.812;9.180;2022-12-18T12:19:00;8.20;;;7.47;;
3975;SDS011;2002;48.812;9.180;2022-12-18T12:27:11;8.80;;;8.03;;
3975;SDS011;2002;48.812;9.180;2022-12-18T12:29:43;9.70;;;8.20;;
3975;SDS011;2002;48.812;9.180;2022-12-18T12:35:37;9.60;;;8.60;;
3975;SDS011;2002;48.812;9.180;2022-12-18T12:38:22;8.50;;;7.60;;
3975;SDS011;2002;48.812;9.180;2022-12-18T12:40:59;7.87;;;7.17;;
3975;SDS011;2002;48.812;9.180;2022-12-18T12:46:04;8.23;;;7.50;;
3975;SDS011;2002;48.812;9.180;2022-12-18T12:51:16;8.00;;;7.30;;
3975;SDS011;2002;48.812;9.180;2022-12-18T12:53:42;6.93;;;6.27;;
3975;SDS011;2002;48.812;9.180;2022-12-18T12:56:09;8.17;;;7.37;;
3975;SDS011;2002;48.812;9.180;2022-12-18T13:01:11;8.70;;;7.80;;
3975;SDS011;2002;48.812;9.180;2022-12-18T13:06:23;8.57;;;7.77;;
3975;SDS011;2002;48.812;9.180;2022-12-18T13:08:54;7.50;;;6.80;;
3975;SDS011;2002;48.812;9.180;2022-12-18T13:11:37;8.40;;;7.60;;
3975;SDS011;2002;48.812;9.180;2022-12-18T13:14:26;8.10;;;7.30;;
3975;SDS011;2002;48.812;9.180;2022-12-18T13:22:36;7.07;;;6.40;;
3975;SDS011;2002;48.812;9.180;2022-12-18T13:25:26;6.93;;;6.23;;
3975;SDS011;2002;48.812;9.180;2022-12-18T13:35:41;6.80;;;6.30;;
3975;SDS011;2002;48.812;9.180;2022-12-18T13:40:59;7.20;;;6.60;;
3975;SDS011;2002;48.812;9.180;2022-12-18T13:43:44;7.73;;;6.80;;
3975;SDS011;2002;48.812;9.180;2022-12-18T13:46:41;6.80;;;6.10;;
3975;SDS011;2002;48.812;9.180;2022-12-18T13:51:39;9.07;;;6.73;;
3975;SDS011;2002;48.812;9.180;2022-12-18T13:57:31;7.70;;;6.90;;
3975;SDS011;2002;48.812;9.180;2022-12-18T14:00:00;7.50;;;6.80;;
3975;SDS011;2002;48.812;9.180;2022-12-18T14:02:50;7.77;;;7.07;;
3975;SDS011;2002;48.812;9.180;2022-12-18T14:05:23;7.30;;;6.70;;
3975;SDS011;2002;48.812;9.180;2022-12-18T14:07:53;7.87;;;6.77;;
3975;SDS011;2002;48.812;9.180;2022-12-18T14:10:19;7.47;;;6.73;;
3975;SDS011;2002;48.812;9.180;2022-12-18T14:12:46;7.73;;;7.03;;
3975;SDS011;2002;48.812;9.180;2022-12-18T14:20:34;8.63;;;7.83;;
3975;SDS011;2002;48.812;9.180;2022-12-18T14:23:00;7.67;;;6.63;;
3975;SDS011;2002;48.812;9.180;2022-12-18T14:25:26;7.80;;;6.93;;
3975;SDS011;2002;48.812;9.180;2022-12-18T14:28:02;6.53;;;6.03;;
3975;SDS011;2002;48.812;9.180;2022-12-18T14:30:32;6.43;;;5.83;;
3975;SDS011;2002;48.812;9.180;2022-12-18T14:33:03;6.33;;;5.73;;
3975;SDS011;2002;48.812;9.180;2022-12-18T14:36:01;7.97;;;7.10;;
3975;SDS011;2002;48.812;9.180;2022-12-18T14:43:39;7.93;;;7.13;;
3975;SDS011;2002;48.812;9.180;2022-12-18T14:46:25;7.23;;;6.43;;
3975;SDS011;2002;48.812;9.180;2022-12-18T14:48:53;6.80;;;6.10;;
3975;SDS011;2002;48.812;9.180;2022-12-18T14:51:21;7.80;;;7.10;;
3975;SDS011;2002;48.812;9.180;2022-12-18T14:53:52;6.90;;;6.20;;
3975;SDS011;2002;48.812;9.180;2022-12-18T14:56:30;6.23;;;5.63;;
3975;SDS011;2002;48.812;9.180;2022-12-18T14:59:11;6.17;;;5.57;;
3975;SDS011;2002;48.812;9.180;2022-12-18T15:04:43;7.27;;;6.57;;
3975;SDS011;2002;48.812;9.180;2022-12-18T15:10:02;7.53;;;6.60;;
3975;SDS011;2002;48.812;9.180;2022-12-18T15:18:02;6.70;;;6.10;;
3975;SDS011;2002;48.812;9.180;2022-12-18T15:20:32;6.70;;;6.10;;
3975;SDS011;2002;48.812;9.180;2022-12-18T15:23:04;5.80;;;5.30;;
3975;SDS011;2002;48.812;9.180;2022-12-18T15:25:34;6.73;;;6.03;;
3975;SDS011;2002;48.812;9.180;2022-12-18T15:28:02;6.60;;;5.50;;
3975;SDS011;2002;48.812;9.180;2022-12-18T15:30:28;6.90;;;6.23;;
3975;SDS011;2002;48.812;9.180;2022-12-18T15:36:01;7.70;;;7.00;;
3975;SDS011;2002;48.812;9.180;2022-12-18T15:38:33;7.93;;;7.17;;
3975;SDS011;2002;48.812;9.180;2022-12-18T15:40:58;6.50;;;5.80;;
3975;SDS011;2002;48.812;9.180;2022-12-18T15:43:24;6.87;;;6.17;;
3975;SDS011;2002;48.812;9.180;2022-12-18T15:46:06;7.13;;;6.43;;
3975;SDS011;2002;48.812;9.180;2022-12-18T15:48:41;6.97;;;6.37;;
3975;SDS011;2002;48.812;9.180;2022-12-18T15:51:12;6.60;;;6.00;;
3975;SDS011;2002;48.812;9.180;2022-12-18T15:53:42;6.20;;;5.60;;
3975;SDS011;2002;48.812;9.180;2022-12-18T15:56:10;6.60;;;6.00;;
3975;SDS011;2002;48.812;9.180;2022-12-18T15:58:55;6.20;;;5.67;;
3975;SDS011;2002;48.812;9.180;2022-12-18T16:01:22;7.23;;;6.53;;
3975;SDS011;2002;48.812;9.180;2022-12-18T16:03:50;6.63;;;6.00;;
3975;SDS011;2002;48.812;9.180;2022-12-18T16:06:15;6.83;;;6.23;;
3975;SDS011;2002;48.812;9.180;2022-12-18T16:08:41;7.30;;;6.60;;
3975;SDS011;2002;48.812;9.180;2022-12-18T16:11:11;6.83;;;6.07;;
3975;SDS011;2002;48.812;9.180;2022-12-18T16:14:03;7.27;;;6.60;;
3975;SDS011;2002;48.812;9.180;2022-12-18T16:16:38;6.30;;;5.73;;
3975;SDS011;2002;48.812;9.180;2022-12-18T16:19:04;7.53;;;6.90;;
3975;SDS011;2002;48.812;9.180;2022-12-18T16:21:29;6.60;;;6.00;;
3975;SDS011;2002;48.812;9.180;2022-12-18T16:23:55;7.13;;;6.50;;
3975;SDS011;2002;48.812;9.180;2022-12-18T16:26:20;7.10;;;6.50;;
3975;SDS011;2002;48.812;9.180;2022-12-18T16:28:46;6.70;;;6.10;;
3975;SDS011;2002;48.812;9.180;2022-12-18T16:31:11;6.80;;;5.90;;
3975;SDS011;2002;48.812;9.180;2022-12-18T16:33:37;6.73;;;6.13;;
3975;SDS011;2002;48.812;9.180;2022-12-18T16:36:03;6.50;;;5.90;;
3975;SDS011;2002;48.812;9.180;2022-12-18T16:38:28;6.67;;;6.10;;
3975;SDS011;2002;48.812;9.180;2022-12-18T16:40:54;5.80;;;5.20;;
3975;SDS011;2002;48.812;9.180;2022-12-18T16:43:38;6.60;;;6.00;;
3975;SDS011;2002;48.812;9.180;2022-12-18T16:46:03;6.57;;;6.00;;
3975;SDS011;2002;48.812;9.180;2022-12-18T16:48:29;6.83;;;5.57;;
3975;SDS011;2002;48.812;9.180;2022-12-18T16:51:01;6.27;;;5.33;;
3975;SDS011;2002;48.812;9.180;2022-12-18T16:53:28;6.73;;;5.97;;
3975;SDS011;2002;48.812;9.180;2022-12-18T16:55:55;5.93;;;5.37;;
3975;SDS011;2002;48.812;9.180;2022-12-18T16:58:21;6.80;;;6.20;;
3975;SDS011;2002;48.812;9.180;2022-12-18T17:00:47;6.60;;;6.00;;
3975;SDS011;2002;48.812;9.180;2022-12-18T17:03:12;7.03;;;6.27;;
3975;SDS011;2002;48.812;9.180;2022-12-18T17:05:38;5.70;;;5.20;;
3975;SDS011;2002;48.812;9.180;2022-12-18T17:08:04;7.10;;;6.50;;
3975;SDS011;2002;48.812;9.180;2022-12-18T17:10:30;6.40;;;5.90;;
3975;SDS011;2002;48.812;9.180;2022-12-18T17:12:58;6.80;;;6.20;;
3975;SDS011;2002;48.812;9.180;2022-12-18T17:15:25;7.00;;;6.30;;
3975;SDS011;2002;48.812;9.180;2022-12-18T17:17:50;7.00;;;5.63;;
3975;SDS011;2002;48.812;9.180;2022-12-18T17:20:16;5.90;;;5.40;;
3975;SDS011;2002;48.812;9.180;2022-12-18T17:22:41;6.87;;;6.20;;
3975;SDS011;2002;48.812;9.180;2022-12-18T17:25:07;6.27;;;5.73;;
3975;SDS011;2002;48.812;9.180;2022-12-18T17:27:33;6.30;;;5.70;;
3975;SDS011;2002;48.812;9.180;2022-12-18T17:29:58;7.30;;;6.70;;
3975;SDS011;2002;48.812;9.180;2022-12-18T17:32:24;6.30;;;5.70;;
3975;SDS011;2002;48.812;9.180;2022-12-18T17:34:49;6.83;;;6.20;;
3975;SDS011;2002;48.812;9.180;2022-12-18T17:37:15;6.63;;;6.03;;
3975;SDS011;2002;48.812;9.180;2022-12-18T17:39:40;7.00;;;6.40;;